Time;durP1;ratioP1;P1;durP2;ratioP2;P2;SDS_P1;SDS_P2;PMS_P1;PMS_P2;Temp;Humidity;BMP_temperature;BMP_pressure;BME280_temperature;BME280_humidity;BME280_pressure;Samples;Min_cycle;Max_cycle;Signal;HPM_P1;HPM_P2
2023/04/11 00:00:29;;;;;;;3.50;1.20;;;12.50;84.50;;;;;;5068985;28;20527;-77
2023/04/11 00:02:58;;;;;;;1.50;0.83;;;12.60;84.30;;;;;;5067154;28;20224;-77
2023/04/11 00:05:25;;;;;;;2.33;1.10;;;12.60;83.70;;;;;;5072723;28;20192;-74
2023/04/11 00:07:50;;;;;;;2.07;0.87;;;12.70;83.80;;;;;;5073087;28;20545;-77
2023/04/11 00:10:16;;;;;;;1.90;0.97;;;12.70;83.80;;;;;;5072938;28;20416;-77
2023/04/11 00:12:42;;;;;;;1.87;0.70;;;12.70;83.30;;;;;;5073426;28;20256;-74
2023/04/11 00:15:08;;;;;;;1.93;0.70;;;12.80;83.30;;;;;;5077140;28;20173;-76
2023/04/11 00:17:36;;;;;;;2.80;0.90;;;12.80;83.60;;;;;;5080942;28;20211;-76
2023/04/11 00:20:06;;;;;;;1.93;0.70;;;12.70;83.70;;;;;;5086120;28;20407;-81
2023/04/11 00:22:35;;;;;;;3.20;0.93;;;12.70;84.50;;;;;;5092819;28;20480;-83
2023/04/11 00:25:01;;;;;;;1.97;0.70;;;12.70;84.70;;;;;;5091150;28;20415;-81
2023/04/11 00:27:27;;;;;;;3.40;1.30;;;12.60;84.70;;;;;;5094613;28;20513;-82
2023/04/11 00:29:55;;;;;;;1.67;0.93;;;12.60;84.80;;;;;;5093455;28;20438;-82
2023/04/11 00:32:21;;;;;;;1.93;0.80;;;12.60;84.90;;;;;;5085112;28;20470;-78
2023/04/11 00:34:47;;;;;;;1.93;1.10;;;12.70;85.00;;;;;;5071851;28;20423;-77
2023/04/11 00:37:13;;;;;;;3.70;0.80;;;12.60;84.20;;;;;;5070670;28;20578;-76
2023/04/11 00:39:39;;;;;;;1.77;0.73;;;12.70;84.00;;;;;;5071212;28;20711;-75
2023/04/11 00:42:07;;;;;;;5.00;1.00;;;12.70;83.80;;;;;;5070931;28;20824;-79
2023/04/11 00:44:35;;;;;;;1.30;0.60;;;12.70;84.00;;;;;;5071853;28;20437;-76
2023/04/11 00:47:02;;;;;;;2.90;0.90;;;12.70;84.40;;;;;;5075756;28;20553;-78
2023/04/11 00:49:29;;;;;;;1.80;0.77;;;12.80;83.70;;;;;;5075463;28;20419;-75
2023/04/11 00:51:55;;;;;;;4.67;1.30;;;12.70;84.00;;;;;;5069727;28;20500;-76
2023/04/11 00:54:21;;;;;;;1.87;1.17;;;12.70;84.50;;;;;;5067176;28;20415;-78
2023/04/11 00:56:46;;;;;;;2.40;1.00;;;12.70;85.30;;;;;;5068298;28;20188;-74
2023/04/11 00:59:12;;;;;;;3.47;1.10;;;12.70;85.30;;;;;;5085196;28;20204;-75
2023/04/11 01:01:37;;;;;;;2.53;0.77;;;12.70;85.80;;;;;;5067942;28;20610;-75
2023/04/11 01:04:04;;;;;;;2.03;0.93;;;12.70;86.20;;;;;;5070749;28;20235;-75
2023/04/11 01:06:31;;;;;;;2.57;0.80;;;12.60;86.90;;;;;;5069631;28;20291;-75
2023/04/11 01:08:57;;;;;;;2.27;0.83;;;12.60;87.30;;;;;;5068833;28;21043;-75
2023/04/11 01:11:23;;;;;;;1.90;1.03;;;12.60;87.60;;;;;;5070677;28;20457;-75
2023/04/11 01:13:49;;;;;;;3.33;0.97;;;12.50;87.90;;;;;;5070980;28;20195;-76
2023/04/11 01:16:20;;;;;;;1.90;0.97;;;12.50;88.50;;;;;;5072990;28;20911;-75
2023/04/11 01:18:46;;;;;;;1.63;0.73;;;12.50;88.80;;;;;;5068437;28;20423;-76
2023/04/11 01:21:12;;;;;;;1.53;0.80;;;12.50;89.20;;;;;;5072540;28;20423;-76
2023/04/11 01:23:38;;;;;;;1.33;0.70;;;12.50;89.50;;;;;;5071578;28;20498;-77
2023/04/11 01:26:04;;;;;;;1.83;0.93;;;12.40;89.80;;;;;;5075631;28;20965;-78
2023/04/11 01:28:30;;;;;;;10.00;1.47;;;12.40;90.20;;;;;;5075995;28;20188;-75
2023/04/11 01:30:56;;;;;;;9.20;1.00;;;12.40;90.40;;;;;;5075517;28;20519;-77
2023/04/11 01:33:22;;;;;;;2.03;0.90;;;12.40;90.70;;;;;;5072049;28;20202;-75
2023/04/11 01:35:48;;;;;;;2.03;0.97;;;12.30;90.80;;;;;;5074253;28;20459;-74
2023/04/11 01:38:14;;;;;;;1.77;1.13;;;12.30;90.90;;;;;;5073530;28;20461;-78
2023/04/11 01:40:40;;;;;;;1.80;0.80;;;12.20;91.30;;;;;;5070581;28;20657;-74
2023/04/11 01:43:08;;;;;;;2.03;0.93;;;12.20;92.20;;;;;;5069348;28;20205;-74
2023/04/11 01:45:34;;;;;;;16.10;1.27;;;12.00;93.30;;;;;;5072976;28;20431;-74
2023/04/11 01:48:05;;;;;;;2.17;1.20;;;12.10;93.30;;;;;;5072422;28;20493;-78
2023/04/11 01:50:30;;;;;;;2.13;0.97;;;11.90;94.10;;;;;;5072327;28;20549;-75
2023/04/11 01:52:56;;;;;;;1.73;0.90;;;11.80;94.80;;;;;;5073503;28;20555;-74
2023/04/11 01:55:21;;;;;;;2.43;1.10;;;11.70;95.00;;;;;;5071977;28;20185;-75
2023/04/11 01:57:47;;;;;;;4.50;1.60;;;11.60;95.50;;;;;;5073666;28;20185;-75
2023/04/11 02:00:13;;;;;;;2.90;1.10;;;11.60;96.10;;;;;;5073369;28;20196;-76
2023/04/11 02:02:39;;;;;;;3.10;1.27;;;11.60;96.30;;;;;;5072573;28;20215;-76
2023/04/11 02:05:05;;;;;;;1.70;1.00;;;11.50;96.90;;;;;;5073461;28;20428;-74
2023/04/11 02:07:30;;;;;;;1.60;0.90;;;11.50;98.00;;;;;;5073989;28;20280;-75
2023/04/11 02:09:57;;;;;;;3.83;1.97;;;11.40;98.80;;;;;;5073002;28;20518;-75
2023/04/11 02:12:22;;;;;;;1.90;0.80;;;11.30;99.80;;;;;;5070383;28;20460;-75
2023/04/11 02:14:48;;;;;;;3.70;1.00;;;11.20;99.90;;;;;;5071272;28;20732;-77
2023/04/11 02:17:17;;;;;;;4.90;1.03;;;11.10;99.90;;;;;;5072285;28;20180;-76
2023/04/11 02:19:44;;;;;;;1.63;0.97;;;10.90;99.90;;;;;;5072215;28;20217;-76
2023/04/11 02:22:13;;;;;;;1.40;0.80;;;10.80;99.90;;;;;;5070839;28;20443;-75
2023/04/11 02:24:40;;;;;;;2.27;1.00;;;10.60;99.90;;;;;;5071286;28;20522;-75
2023/04/11 02:27:06;;;;;;;1.60;0.90;;;10.50;99.90;;;;;;5071611;28;20450;-75
2023/04/11 02:29:32;;;;;;;2.57;1.27;;;10.40;99.90;;;;;;5070790;28;20427;-75
2023/04/11 02:31:58;;;;;;;2.40;1.23;;;10.40;99.90;;;;;;5071533;28;20462;-74
2023/04/11 02:34:24;;;;;;;2.60;1.10;;;10.30;99.90;;;;;;5070999;28;20428;-78
2023/04/11 02:36:50;;;;;;;1.50;0.83;;;10.10;99.90;;;;;;5070987;28;20180;-75
2023/04/11 02:39:16;;;;;;;3.10;0.90;;;10.00;99.90;;;;;;5065833;28;20514;-77
2023/04/11 02:41:41;;;;;;;1.40;0.50;;;9.90;99.90;;;;;;5070163;28;20205;-76
2023/04/11 02:44:11;;;;;;;1.50;0.67;;;9.80;99.90;;;;;;5071529;28;20419;-75
2023/04/11 02:46:37;;;;;;;1.87;0.80;;;9.70;99.90;;;;;;5070216;28;20197;-77
2023/04/11 02:49:03;;;;;;;1.20;0.60;;;9.80;99.90;;;;;;5087369;28;20453;-75
2023/04/11 02:51:29;;;;;;;1.73;0.80;;;9.70;99.90;;;;;;5071438;28;20193;-75
2023/04/11 02:53:55;;;;;;;1.33;0.60;;;9.60;99.90;;;;;;5068820;28;20428;-77
2023/04/11 02:56:21;;;;;;;1.60;0.60;;;9.60;99.90;;;;;;5067590;28;20423;-79
2023/04/11 02:58:47;;;;;;;1.73;0.80;;;9.60;99.90;;;;;;5073128;28;20177;-76
2023/04/11 03:01:15;;;;;;;1.20;0.70;;;9.40;99.90;;;;;;5067252;28;20219;-77
2023/04/11 03:03:41;;;;;;;2.03;0.93;;;9.40;99.90;;;;;;5069287;28;20533;-75
2023/04/11 03:06:07;;;;;;;1.40;0.67;;;9.40;99.90;;;;;;5067336;28;20776;-76
2023/04/11 03:08:34;;;;;;;1.53;0.87;;;9.30;99.90;;;;;;5070437;28;20188;-76
2023/04/11 03:11:01;;;;;;;1.20;0.50;;;9.30;99.90;;;;;;5069460;28;20173;-76
2023/04/11 03:13:26;;;;;;;1.60;0.80;;;9.30;99.90;;;;;;5068577;28;20443;-79
2023/04/11 03:15:52;;;;;;;1.43;0.73;;;9.30;99.90;;;;;;5070322;28;20969;-75
2023/04/11 03:18:18;;;;;;;1.50;0.50;;;9.20;99.90;;;;;;5068616;28;20238;-75
2023/04/11 03:20:44;;;;;;;2.07;0.70;;;9.20;99.90;;;;;;5068721;28;20235;-76
2023/04/11 03:23:09;;;;;;;1.20;0.53;;;9.20;99.90;;;;;;5070266;28;20242;-79
2023/04/11 03:25:36;;;;;;;1.57;0.50;;;9.10;99.90;;;;;;5085565;28;20526;-79
2023/04/11 03:28:03;;;;;;;1.10;0.50;;;9.00;99.90;;;;;;5070097;28;20231;-75
2023/04/11 03:30:28;;;;;;;1.83;0.60;;;8.90;99.90;;;;;;5067875;28;20415;-75
2023/04/11 03:32:54;;;;;;;1.10;0.40;;;9.00;99.90;;;;;;5068347;28;20450;-75
2023/04/11 03:35:20;;;;;;;1.10;0.50;;;8.90;99.90;;;;;;5070137;28;20185;-77
2023/04/11 03:37:46;;;;;;;1.43;0.50;;;8.90;99.90;;;;;;5071154;28;20194;-75
2023/04/11 03:40:12;;;;;;;1.10;0.50;;;8.80;99.90;;;;;;5069200;28;20704;-77
2023/04/11 03:42:38;;;;;;;1.17;0.53;;;8.80;99.90;;;;;;5069668;28;20539;-76
2023/04/11 03:45:04;;;;;;;1.40;0.50;;;8.80;99.90;;;;;;5069244;28;20192;-75
2023/04/11 03:47:29;;;;;;;1.10;0.50;;;8.80;99.90;;;;;;5070149;28;20232;-76
2023/04/11 03:49:55;;;;;;;1.10;0.40;;;8.80;99.90;;;;;;5067021;28;20427;-76
2023/04/11 03:52:21;;;;;;;1.20;0.50;;;8.80;99.90;;;;;;5068385;28;20628;-79
2023/04/11 03:54:46;;;;;;;1.10;0.40;;;8.70;99.90;;;;;;5066142;28;20234;-78
2023/04/11 03:57:12;;;;;;;3.77;0.50;;;8.80;99.90;;;;;;5067700;28;20553;-75
2023/04/11 03:59:37;;;;;;;1.20;0.50;;;8.80;99.90;;;;;;5066666;28;20278;-75
2023/04/11 04:02:03;;;;;;;1.30;0.63;;;8.70;99.90;;;;;;5067663;28;20205;-75
2023/04/11 04:04:31;;;;;;;1.40;0.57;;;8.80;99.90;;;;;;5064980;28;20185;-78
2023/04/11 04:06:56;;;;;;;1.50;0.60;;;8.80;99.90;;;;;;5068587;28;20303;-76
2023/04/11 04:09:22;;;;;;;1.17;0.50;;;8.70;99.90;;;;;;5067852;28;20566;-76
2023/04/11 04:11:49;;;;;;;1.10;0.50;;;8.80;99.90;;;;;;5067509;28;20220;-77
2023/04/11 04:14:15;;;;;;;1.30;0.50;;;8.80;99.90;;;;;;5066017;28;20999;-75
2023/04/11 04:16:40;;;;;;;1.40;0.50;;;8.80;99.90;;;;;;5070053;28;20431;-75
2023/04/11 04:19:06;;;;;;;2.13;0.50;;;8.60;99.90;;;;;;5065630;28;20212;-73
2023/04/11 04:21:32;;;;;;;1.20;0.60;;;8.70;99.90;;;;;;5067292;28;20189;-76
2023/04/11 04:24:02;;;;;;;1.73;0.50;;;8.60;99.90;;;;;;5065965;28;20199;-75
2023/04/11 04:26:31;;;;;;;1.20;0.50;;;8.60;99.90;;;;;;5066423;28;20467;-78
2023/04/11 04:29:03;;;;;;;1.77;1.00;;;8.60;99.90;;;;;;5066103;28;20426;-75
2023/04/11 04:31:32;;;;;;;1.53;0.60;;;8.60;99.90;;;;;;5066269;28;20433;-74
2023/04/11 04:34:07;;;;;;;1.30;0.63;;;8.50;99.90;;;;;;5067846;28;20419;-75
2023/04/11 04:36:45;;;;;;;1.20;0.60;;;8.60;99.90;;;;;;5064313;28;20484;-79
2023/04/11 04:39:16;;;;;;;1.30;0.50;;;8.50;99.90;;;;;;5065516;28;20856;-77
2023/04/11 04:41:48;;;;;;;1.10;0.50;;;8.50;99.90;;;;;;5065747;28;20856;-74
2023/04/11 04:44:16;;;;;;;1.30;0.50;;;8.40;99.90;;;;;;5068344;28;20427;-75
2023/04/11 04:46:42;;;;;;;1.67;0.57;;;8.40;99.90;;;;;;5070369;28;20485;-75
2023/04/11 04:49:08;;;;;;;1.20;0.40;;;8.40;99.90;;;;;;5067070;28;20899;-75
2023/04/11 04:51:39;;;;;;;1.10;0.40;;;8.30;99.90;;;;;;5065904;28;20209;-74
2023/04/11 04:54:04;;;;;;;1.40;0.50;;;8.30;99.90;;;;;;5065350;28;20230;-75
2023/04/11 04:56:30;;;;;;;1.10;0.40;;;8.30;99.90;;;;;;5067009;28;20910;-75
2023/04/11 04:58:56;;;;;;;1.10;0.40;;;8.20;99.90;;;;;;5069776;28;20702;-75
2023/04/11 05:01:25;;;;;;;1.10;0.40;;;8.10;99.90;;;;;;5069119;28;20275;-75
2023/04/11 05:03:58;;;;;;;1.10;0.40;;;8.20;99.90;;;;;;5073121;28;20425;-78
2023/04/11 05:06:28;;;;;;;1.30;0.60;;;8.10;99.90;;;;;;5071716;28;20534;-75
2023/04/11 05:08:55;;;;;;;1.10;0.40;;;8.10;99.90;;;;;;5069457;28;20922;-76
2023/04/11 05:11:21;;;;;;;1.50;0.60;;;8.10;99.90;;;;;;5070987;28;20476;-78
2023/04/11 05:13:47;;;;;;;3.37;0.50;;;7.90;99.90;;;;;;5069376;28;20415;-77
2023/04/11 05:16:12;;;;;;;1.13;0.47;;;8.00;99.90;;;;;;5073082;28;20775;-75
2023/04/11 05:18:38;;;;;;;1.10;0.40;;;7.90;99.90;;;;;;5068783;28;20307;-78
2023/04/11 05:21:04;;;;;;;1.50;0.67;;;7.90;99.90;;;;;;5072901;28;20217;-75
2023/04/11 05:23:29;;;;;;;1.67;0.57;;;7.70;99.90;;;;;;5067472;28;20197;-76
2023/04/11 05:25:55;;;;;;;1.70;0.50;;;7.50;99.90;;;;;;5069438;28;22579;-76
2023/04/11 05:28:21;;;;;;;1.10;0.50;;;7.40;99.90;;;;;;5068324;28;20295;-77
2023/04/11 05:30:46;;;;;;;1.10;0.40;;;7.40;99.90;;;;;;5071394;28;20195;-76
2023/04/11 05:33:14;;;;;;;3.10;0.60;;;7.30;99.90;;;;;;5069407;28;20221;-76
2023/04/11 05:35:40;;;;;;;1.10;0.50;;;7.20;99.90;;;;;;5070962;28;20226;-76
2023/04/11 05:38:06;;;;;;;1.10;0.50;;;7.20;99.90;;;;;;5072332;28;20755;-76
2023/04/11 05:40:32;;;;;;;2.03;0.60;;;7.20;99.90;;;;;;5072053;28;20808;-76
2023/04/11 05:42:57;;;;;;;1.10;0.47;;;7.10;99.90;;;;;;5068657;28;20443;-76
2023/04/11 05:45:23;;;;;;;1.27;0.50;;;7.10;99.90;;;;;;5070916;28;20184;-75
2023/04/11 05:47:48;;;;;;;1.53;0.53;;;7.00;99.90;;;;;;5070657;28;20220;-78
2023/04/11 05:50:14;;;;;;;5.00;0.70;;;7.00;99.90;;;;;;5071024;28;20546;-77
2023/04/11 05:52:40;;;;;;;1.60;0.70;;;7.00;99.90;;;;;;5069596;28;20692;-77
2023/04/11 05:55:06;;;;;;;1.50;0.60;;;7.00;99.90;;;;;;5070894;28;20186;-79
2023/04/11 05:57:32;;;;;;;2.27;0.57;;;6.90;99.90;;;;;;5073196;28;20188;-77
2023/04/11 06:00:00;;;;;;;1.50;0.60;;;6.90;99.90;;;;;;5073593;28;20419;-76
2023/04/11 06:02:27;;;;;;;1.50;0.53;;;6.90;99.90;;;;;;5069793;28;20362;-78
2023/04/11 06:04:53;;;;;;;2.13;0.80;;;6.90;99.90;;;;;;5068998;28;20449;-75
2023/04/11 06:07:20;;;;;;;4.03;0.70;;;7.00;99.90;;;;;;5070595;28;20554;-76
2023/04/11 06:09:46;;;;;;;1.10;0.50;;;6.90;99.90;;;;;;5071056;28;20177;-75
2023/04/11 06:12:12;;;;;;;2.67;0.70;;;7.00;99.90;;;;;;5077992;28;20558;-75
2023/04/11 06:14:38;;;;;;;1.97;0.70;;;6.90;99.90;;;;;;5106176;28;20445;-83
2023/04/11 06:17:04;;;;;;;1.93;0.70;;;6.90;99.90;;;;;;5096040;28;20166;-82
2023/04/11 06:19:30;;;;;;;5.03;1.37;;;6.80;99.90;;;;;;5094283;28;20434;-82
2023/04/11 06:21:55;;;;;;;1.63;0.67;;;6.90;99.90;;;;;;5110432;28;20505;-82
2023/04/11 06:24:35;;;;;;;1.73;0.77;;;6.80;99.90;;;;;;5096215;28;20173;-81
2023/04/11 06:27:00;;;;;;;1.57;0.83;;;6.80;99.90;;;;;;5091123;28;20219;-75
2023/04/11 06:29:26;;;;;;;4.20;1.57;;;6.80;99.90;;;;;;5070066;28;20431;-75
2023/04/11 06:31:51;;;;;;;2.67;0.90;;;6.80;99.90;;;;;;5069351;28;20604;-79
2023/04/11 06:34:17;;;;;;;2.20;0.80;;;6.90;99.90;;;;;;5070569;28;20185;-76
2023/04/11 06:36:42;;;;;;;3.27;0.90;;;6.80;99.90;;;;;;5069076;28;20622;-75
2023/04/11 06:39:08;;;;;;;2.53;0.83;;;6.80;99.90;;;;;;5069534;28;20189;-75
2023/04/11 06:41:35;;;;;;;1.43;0.63;;;6.90;99.90;;;;;;5067466;28;20170;-78
2023/04/11 06:44:00;;;;;;;1.93;0.80;;;6.80;99.90;;;;;;5070916;28;20185;-75
2023/04/11 06:46:26;;;;;;;3.50;1.30;;;6.80;99.90;;;;;;5067723;28;20512;-74
2023/04/11 06:48:52;;;;;;;1.70;0.70;;;6.80;99.90;;;;;;5068185;28;20253;-77
2023/04/11 06:51:17;;;;;;;5.30;0.80;;;6.80;99.90;;;;;;5067369;28;20583;-74
2023/04/11 06:53:43;;;;;;;1.80;0.70;;;6.80;99.90;;;;;;5068033;28;20292;-75
2023/04/11 06:56:09;;;;;;;5.93;1.37;;;6.90;99.90;;;;;;5067087;28;20260;-75
2023/04/11 06:58:35;;;;;;;2.17;0.70;;;6.90;99.90;;;;;;5070253;28;20613;-75
2023/04/11 07:01:01;;;;;;;1.30;0.60;;;6.90;99.90;;;;;;5069077;28;20173;-78
2023/04/11 07:03:27;;;;;;;1.30;0.60;;;7.00;99.90;;;;;;5070149;28;20200;-75
2023/04/11 07:05:52;;;;;;;1.20;0.57;;;7.00;99.90;;;;;;5068184;28;20220;-75
2023/04/11 07:08:18;;;;;;;3.00;0.80;;;7.00;99.90;;;;;;5068848;28;20863;-76
2023/04/11 07:10:44;;;;;;;5.80;0.70;;;7.00;99.90;;;;;;5069075;28;20649;-75
2023/04/11 07:13:09;;;;;;;3.47;0.80;;;7.10;99.90;;;;;;5064765;28;20676;-78
2023/04/11 07:15:35;;;;;;;1.40;0.60;;;7.10;99.90;;;;;;5070355;28;20176;-79
2023/04/11 07:18:01;;;;;;;1.20;0.50;;;7.20;99.90;;;;;;5066457;28;20185;-77
2023/04/11 07:20:26;;;;;;;1.17;0.50;;;7.20;99.90;;;;;;5067184;28;20193;-75
2023/04/11 07:22:52;;;;;;;1.90;0.77;;;7.30;99.90;;;;;;5066716;28;20220;-75
2023/04/11 07:25:21;;;;;;;1.60;0.60;;;7.40;99.90;;;;;;5070057;28;20242;-76
2023/04/11 07:27:50;;;;;;;2.07;0.90;;;7.40;99.90;;;;;;5066915;28;20557;-75
2023/04/11 07:30:16;;;;;;;1.87;0.60;;;7.50;99.90;;;;;;5069132;28;20467;-77
2023/04/11 07:32:41;;;;;;;1.80;0.80;;;7.50;99.90;;;;;;5068278;28;20451;-75
2023/04/11 07:35:07;;;;;;;1.13;0.50;;;7.60;99.90;;;;;;5067750;28;20181;-75
2023/04/11 07:37:34;;;;;;;2.53;0.67;;;7.60;99.90;;;;;;5069364;28;20710;-75
2023/04/11 07:40:00;;;;;;;1.50;0.97;;;7.60;99.90;;;;;;5067518;28;20420;-75
2023/04/11 07:42:25;;;;;;;1.97;0.80;;;7.70;99.90;;;;;;5067892;28;20452;-75
2023/04/11 07:44:51;;;;;;;3.00;0.63;;;7.80;99.90;;;;;;5068840;28;20181;-79
2023/04/11 07:47:16;;;;;;;3.53;0.70;;;8.20;99.90;;;;;;5067878;28;20208;-78
2023/04/11 07:49:42;;;;;;;1.93;0.80;;;8.80;99.90;;;;;;5067879;28;20185;-77
2023/04/11 07:52:07;;;;;;;9.50;1.17;;;9.00;99.90;;;;;;5068357;28;20200;-75
2023/04/11 07:54:33;;;;;;;1.97;0.93;;;9.20;99.90;;;;;;5067792;28;20184;-77
2023/04/11 07:57:00;;;;;;;3.20;1.33;;;9.20;99.90;;;;;;5069934;28;20549;-75
2023/04/11 07:59:25;;;;;;;10.83;1.93;;;9.30;99.90;;;;;;5070847;28;20262;-75
2023/04/11 08:02:01;;;;;;;3.13;1.37;;;9.40;99.90;;;;;;5071285;28;20488;-77
2023/04/11 08:04:32;;;;;;;18.03;1.70;;;9.70;99.90;;;;;;5073219;28;20176;-76
2023/04/11 08:06:57;;;;;;;3.30;1.03;;;9.50;99.90;;;;;;5070710;28;20455;-75
2023/04/11 08:09:23;;;;;;;2.07;1.00;;;9.40;99.90;;;;;;5069186;28;20415;-77
2023/04/11 08:11:48;;;;;;;1.40;0.60;;;9.20;99.90;;;;;;5070574;28;20234;-75
2023/04/11 08:14:14;;;;;;;7.13;1.30;;;9.00;99.90;;;;;;5067202;28;20226;-75
2023/04/11 08:16:40;;;;;;;2.80;0.97;;;8.90;99.90;;;;;;5071724;28;20207;-75
2023/04/11 08:19:06;;;;;;;2.63;0.77;;;8.80;99.90;;;;;;5067849;28;20518;-77
2023/04/11 08:21:32;;;;;;;9.33;1.67;;;8.70;99.90;;;;;;5069750;28;20651;-75
2023/04/11 08:23:58;;;;;;;4.07;0.83;;;8.70;99.90;;;;;;5069502;28;20181;-75
2023/04/11 08:26:23;;;;;;;2.43;0.70;;;8.60;99.90;;;;;;5070839;28;20415;-75
2023/04/11 08:28:49;;;;;;;4.60;1.03;;;8.50;99.90;;;;;;5072333;28;20226;-75
2023/04/11 08:31:15;;;;;;;3.87;1.20;;;8.50;99.90;;;;;;5070871;28;20268;-75
2023/04/11 08:33:40;;;;;;;7.80;1.23;;;8.60;99.90;;;;;;5072702;28;20239;-78
2023/04/11 08:36:08;;;;;;;2.60;1.17;;;8.70;99.90;;;;;;5075114;28;20208;-75
2023/04/11 08:38:35;;;;;;;2.17;1.00;;;8.90;99.90;;;;;;5074991;28;20543;-74
2023/04/11 08:41:00;;;;;;;7.20;1.67;;;9.00;99.90;;;;;;5074649;28;20449;-78
2023/04/11 08:43:26;;;;;;;2.70;1.10;;;9.10;99.90;;;;;;5073446;28;20463;-76
2023/04/11 08:45:52;;;;;;;1.60;1.00;;;9.10;99.90;;;;;;5074362;28;20668;-75
2023/04/11 08:48:20;;;;;;;2.90;0.90;;;9.40;99.90;;;;;;5071255;28;20244;-76
2023/04/11 08:50:46;;;;;;;2.33;1.00;;;9.40;99.90;;;;;;5069973;28;20173;-76
2023/04/11 08:53:14;;;;;;;5.20;1.40;;;9.50;99.90;;;;;;5070433;28;20945;-75
2023/04/11 08:55:48;;;;;;;1.40;0.60;;;9.20;99.90;;;;;;5072560;28;20193;-75
2023/04/11 08:58:14;;;;;;;4.70;2.40;;;9.30;99.90;;;;;;5072734;28;20438;-76
2023/04/11 09:00:39;;;;;;;7.50;0.83;;;9.50;99.90;;;;;;5070731;28;20517;-75
2023/04/11 09:03:07;;;;;;;5.57;1.63;;;9.70;99.90;;;;;;5070952;28;20280;-75
2023/04/11 09:05:34;;;;;;;1.30;0.50;;;10.20;99.60;;;;;;5069984;28;20177;-75
2023/04/11 09:08:05;;;;;;;1.83;0.73;;;10.80;98.10;;;;;;5072326;28;20463;-76
2023/04/11 09:10:31;;;;;;;1.50;0.60;;;10.90;95.90;;;;;;5071149;28;20494;-77
2023/04/11 09:12:57;;;;;;;4.13;0.80;;;10.60;96.10;;;;;;5071612;28;20525;-78
2023/04/11 09:15:28;;;;;;;3.57;1.13;;;10.40;96.30;;;;;;5073966;28;20445;-75
2023/04/11 09:17:54;;;;;;;12.10;1.23;;;10.30;96.00;;;;;;5070504;28;20427;-74
2023/04/11 09:20:30;;;;;;;3.17;0.87;;;10.50;95.40;;;;;;5071172;28;20426;-75
2023/04/11 09:22:57;;;;;;;2.70;0.80;;;10.50;95.80;;;;;;5069632;28;20459;-75
2023/04/11 09:25:23;;;;;;;1.60;0.90;;;10.40;96.10;;;;;;5089946;28;20412;-81
2023/04/11 09:28:05;;;;;;;2.90;1.17;;;10.60;95.20;;;;;;5082621;28;20831;-77
2023/04/11 09:30:31;;;;;;;3.63;0.90;;;10.80;96.20;;;;;;5082381;28;21018;-77
2023/04/11 09:32:57;;;;;;;6.80;1.37;;;10.70;94.80;;;;;;5077694;28;20530;-77
2023/04/11 09:35:24;;;;;;;1.53;0.60;;;10.50;95.20;;;;;;5069280;28;20221;-74
2023/04/11 09:37:57;;;;;;;1.80;0.90;;;10.30;95.20;;;;;;5071797;28;20234;-75
2023/04/11 09:40:25;;;;;;;11.43;1.47;;;10.40;94.90;;;;;;5070212;28;20517;-76
2023/04/11 09:42:59;;;;;;;1.97;0.50;;;10.00;95.40;;;;;;5072229;28;20454;-77
2023/04/11 09:45:25;;;;;;;19.30;1.63;;;9.70;96.40;;;;;;5070286;28;20415;-75
2023/04/11 09:47:57;;;;;;;11.53;1.43;;;9.60;97.50;;;;;;5069989;28;20459;-76
2023/04/11 09:50:26;;;;;;;4.03;1.10;;;9.40;98.30;;;;;;5069767;28;21029;-75
2023/04/11 09:52:54;;;;;;;1.77;0.90;;;9.30;99.90;;;;;;5068474;28;20462;-79
2023/04/11 09:55:22;;;;;;;3.73;1.13;;;9.50;99.90;;;;;;5069165;28;20420;-75
2023/04/11 09:57:50;;;;;;;3.03;0.63;;;9.70;99.90;;;;;;5067385;28;20916;-78
2023/04/11 10:00:28;;;;;;;1.63;0.80;;;10.10;99.30;;;;;;5071031;28;20431;-76
2023/04/11 10:02:54;;;;;;;2.90;0.57;;;10.30;97.90;;;;;;5066370;28;20458;-79
2023/04/11 10:05:24;;;;;;;1.83;0.93;;;10.20;96.70;;;;;;5068804;28;20523;-75
2023/04/11 10:07:59;;;;;;;4.47;0.83;;;10.40;97.10;;;;;;5068622;28;20455;-76
2023/04/11 10:10:25;;;;;;;4.50;0.70;;;10.60;97.50;;;;;;5070363;28;20977;-77
2023/04/11 10:12:51;;;;;;;1.40;0.70;;;10.80;97.00;;;;;;5068650;28;20525;-78
2023/04/11 10:15:17;;;;;;;2.23;0.93;;;11.20;96.00;;;;;;5071938;28;20226;-75
2023/04/11 10:18:09;;;;;;;4.00;1.00;;;11.00;95.70;;;;;;5070607;28;20192;-79
2023/04/11 10:20:39;;;;;;;3.87;1.03;;;10.90;95.50;;;;;;5061027;28;20975;-79
2023/04/11 10:23:05;;;;;;;10.63;0.90;;;10.80;95.70;;;;;;5067238;28;20446;-76
2023/04/11 10:25:46;;;;;;;3.10;1.23;;;10.60;96.60;;;;;;5070316;28;20478;-78
2023/04/11 10:28:38;;;;;;;8.37;1.50;;;10.60;96.00;;;;;;5085493;28;20471;-77
2023/04/11 10:31:03;;;;;;;1.20;0.53;;;10.60;96.30;;;;;;5067774;28;20449;-76
2023/04/11 10:33:30;;;;;;;2.27;0.80;;;10.60;97.10;;;;;;5069646;28;20439;-76
2023/04/11 10:36:11;;;;;;;18.70;1.20;;;10.40;96.50;;;;;;5070657;28;20184;-75
2023/04/11 10:38:42;;;;;;;1.87;0.80;;;10.30;96.50;;;;;;5068447;28;20415;-77
2023/04/11 10:41:32;;;;;;;1.73;0.83;;;10.20;97.00;;;;;;5069693;28;20415;-79
2023/04/11 10:44:19;;;;;;;1.30;0.60;;;10.10;99.30;;;;;;5069038;28;20442;-76
2023/04/11 10:46:53;;;;;;;1.83;0.90;;;9.80;99.90;;;;;;5068186;28;20459;-77
2023/04/11 10:49:36;;;;;;;1.37;0.60;;;9.50;99.90;;;;;;5066154;28;20419;-77
2023/04/11 10:52:20;;;;;;;2.83;1.10;;;9.00;99.90;;;;;;5066625;28;20938;-76
2023/04/11 10:54:47;;;;;;;2.27;0.90;;;9.20;99.90;;;;;;5068366;28;20470;-76
2023/04/11 10:57:13;;;;;;;4.03;1.00;;;9.30;99.90;;;;;;5070270;28;20423;-76
2023/04/11 10:59:38;;;;;;;1.90;0.90;;;9.70;99.90;;;;;;5068266;28;20422;-76
2023/04/11 11:02:04;;;;;;;2.20;1.00;;;9.90;99.90;;;;;;5068851;28;20447;-74
2023/04/11 11:04:30;;;;;;;2.00;1.07;;;10.00;99.90;;;;;;5068835;28;20188;-76
2023/04/11 11:06:57;;;;;;;1.30;0.70;;;10.10;99.90;;;;;;5068844;28;20252;-76
2023/04/11 11:09:23;;;;;;;1.80;0.90;;;10.30;99.90;;;;;;5067094;28;20447;-76
2023/04/11 11:12:14;;;;;;;1.30;0.60;;;10.50;99.90;;;;;;5068347;28;20461;-77
2023/04/11 11:14:44;;;;;;;6.90;1.90;;;10.60;98.30;;;;;;5068311;28;20702;-79
2023/04/11 11:17:11;;;;;;;5.60;1.57;;;10.80;96.00;;;;;;5092540;28;22059;-82
2023/04/11 11:19:43;;;;;;;4.37;1.33;;;10.90;97.50;;;;;;5068753;28;20472;-76
2023/04/11 11:22:16;;;;;;;3.00;0.70;;;10.90;96.20;;;;;;5067293;28;20443;-76
2023/04/11 11:24:42;;;;;;;1.90;0.73;;;11.00;96.80;;;;;;5068273;28;20419;-78
2023/04/11 11:27:18;;;;;;;2.10;0.93;;;11.10;95.60;;;;;;5070094;28;20562;-76
2023/04/11 11:29:44;;;;;;;2.40;1.00;;;11.40;96.70;;;;;;5068340;28;20181;-76
2023/04/11 11:32:20;;;;;;;3.03;0.63;;;11.50;95.90;;;;;;5067044;28;20459;-76
2023/04/11 11:34:46;;;;;;;2.20;1.10;;;11.70;94.60;;;;;;5067951;28;20766;-76
2023/04/11 11:37:13;;;;;;;4.30;1.23;;;11.80;93.60;;;;;;5068431;28;20454;-77
2023/04/11 11:39:39;;;;;;;1.97;0.60;;;11.50;91.80;;;;;;5066515;28;20185;-78
2023/04/11 11:42:04;;;;;;;3.47;1.03;;;11.20;91.30;;;;;;5071615;28;20465;-75
2023/04/11 11:44:30;;;;;;;7.00;1.10;;;11.00;92.60;;;;;;5071565;28;20663;-75
2023/04/11 11:47:08;;;;;;;7.73;1.13;;;11.10;93.60;;;;;;5069863;28;20680;-75
2023/04/11 11:49:49;;;;;;;3.57;1.27;;;11.30;92.90;;;;;;5068607;28;20422;-77
2023/04/11 11:52:35;;;;;;;6.20;1.33;;;11.30;93.00;;;;;;5071428;28;20434;-75
2023/04/11 11:55:08;;;;;;;3.47;1.20;;;11.40;91.50;;;;;;5072136;28;20424;-76
2023/04/11 11:57:35;;;;;;;2.57;1.00;;;11.50;92.10;;;;;;5070068;28;20423;-75
2023/04/11 12:00:05;;;;;;;5.90;1.90;;;11.50;87.80;;;;;;5071038;28;20419;-78
2023/04/11 12:02:34;;;;;;;2.37;1.00;;;11.40;88.90;;;;;;5071077;28;20493;-76
2023/04/11 12:05:03;;;;;;;4.40;0.63;;;11.60;90.80;;;;;;5076203;28;20427;-79
2023/04/11 12:07:35;;;;;;;1.40;0.70;;;11.70;90.20;;;;;;5075875;28;20455;-76
2023/04/11 12:10:08;;;;;;;4.13;1.20;;;11.80;90.90;;;;;;5083993;28;20487;-84
2023/04/11 12:12:37;;;;;;;1.97;0.80;;;12.10;90.30;;;;;;5092250;28;20452;-83
2023/04/11 12:15:17;;;;;;;2.33;0.80;;;12.30;87.50;;;;;;5083835;28;20437;-83
2023/04/11 12:17:47;;;;;;;1.83;0.63;;;12.40;83.10;;;;;;5089376;28;20517;-79
2023/04/11 12:20:16;;;;;;;2.27;0.70;;;12.40;83.40;;;;;;5083298;28;20423;-78
2023/04/11 12:22:42;;;;;;;6.97;1.33;;;12.50;84.50;;;;;;5074028;28;20480;-75
2023/04/11 12:25:09;;;;;;;4.40;1.23;;;12.20;79.40;;;;;;5069375;28;20415;-76
2023/04/11 12:27:40;;;;;;;8.10;1.43;;;12.10;82.10;;;;;;5072743;28;20277;-76
2023/04/11 12:30:07;;;;;;;1.90;1.10;;;11.90;81.80;;;;;;5071543;28;20597;-76
2023/04/11 12:32:33;;;;;;;2.53;0.77;;;11.90;84.20;;;;;;5072746;28;20462;-75
2023/04/11 12:35:03;;;;;;;2.83;1.07;;;12.00;82.60;;;;;;5070272;28;20465;-75
2023/04/11 12:37:29;;;;;;;2.07;0.70;;;11.90;82.90;;;;;;5067689;28;20982;-75
2023/04/11 12:39:55;;;;;;;1.80;0.83;;;11.90;84.00;;;;;;5065133;28;20436;-75
2023/04/11 12:42:20;;;;;;;2.70;1.00;;;11.90;85.00;;;;;;5066099;28;20806;-75
2023/04/11 12:44:46;;;;;;;2.60;1.30;;;11.90;85.00;;;;;;5067422;28;20179;-76
2023/04/11 12:47:12;;;;;;;3.23;1.13;;;12.00;85.50;;;;;;5071942;28;20209;-75
2023/04/11 12:49:38;;;;;;;5.70;1.07;;;12.10;83.40;;;;;;5073811;28;20430;-75
2023/04/11 12:52:05;;;;;;;4.80;1.00;;;12.30;83.70;;;;;;5068738;28;20284;-75
2023/04/11 12:54:31;;;;;;;2.80;1.23;;;12.60;80.20;;;;;;5068027;28;20505;-75